• Join FlightAware (Why Join?)
  • Login
  • US Flag 
04:48AM EDT


 

Airport Tracker/Info


-or-


 

Live Flight TrackerFlight Track Log ✈ N415JA ✈ 27-Aug-2013 ✈ KAPF - KTMB

Flight Track Log - Related Links

Times and Time Zones

All times are in EDT time to prevent confusion due to time zone crossing. See the N415JA flight status page for this flight to view local times or setup timezone preferences in your user account.

Time Position Orientation Groundspeed Altitude Reporting Facility
EDT Latitude Longitude Course Direction KTS MPH feet Rate Location/Type
05:28PM 26.2681 -81.6822 34° Northeast 272 313 5,100  Level Miami Center
05:29PM 26.3036 -81.6142 60° Northeast 262 302 5,000 -60 Descending Miami Center
05:30PM 26.3228 -81.5386 74° East 244 281 5,000  Level Miami Center
05:31PM 26.3297 -81.4553 85° East 249 287 5,000  Level Miami Center
05:32PM 26.0866 -81.4013 101° East  Level FlightAware Approximate
05:32PM 26.3300 -81.3767 90° East 249 287 5,000  Level Miami Center
05:33PM 26.2947 -81.3058 119° Southeast 249 287 5,000  Level Miami Center
05:34PM 26.2464 -81.2436 131° Southeast 260 299 5,000  Level Miami Center
05:35PM 26.1961 -81.1839 133° Southeast 265 305 5,000  Level Miami Center
05:36PM 26.1475 -81.1267 133° Southeast 265 305 5,000  Level Miami Center
05:37PM 26.1150 -81.0931 137° Southeast 259 298 5,000  Level Miami Center
05:38PM 26.0667 -81.0336 132° Southeast 249 287 5,000  Level Miami Center
05:39PM 26.0181 -80.9811 136° Southeast 247 284 5,000 -120 Level Miami Center
05:40PM 25.9597 -80.9053 131° Southeast 249 287 4,800 -540 Descending Miami Center
05:41PM 25.9192 -80.8575 133° Southeast 270 311 4,000 -1,020 Descending Miami Center
05:42PM 25.8625 -80.7956 135° Southeast 282 325 3,100 -900 Descending Miami Center
05:43PM 25.8200 -80.7414 131° Southeast 235 270 2,200 -540 Descending Miami Center
05:44PM 25.7753 -80.6914 135° Southeast 198 228 2,100 -300 Descending Miami Center
05:45PM 25.7408 -80.6486 132° Southeast 180 207 1,700 -300 Descending Miami Center
05:46PM 25.7022 -80.6106 138° Southeast 189 217 1,600 -120 Descending Miami Center
05:47PM 25.6719 -80.5683 129° Southeast 175 201 1,500 -60 Descending Miami Center
05:48PM 25.6375 -80.5256 132° Southeast 187 215 1,500 -480 Level Miami Center
05:49PM 25.6389 -80.4728 88° East 141 162 600 -900 Descending Miami Center
05:51PM 25.6476 -80.4332 90° East  Level Estimated
05:58PM 25.6476 -80.4332 90° East  Level Estimated